Pagrindinis puslapis
METAR-TAF:

METAR-TAF

Oro uostai :

Gazipaşa, Turkija

platuma: 36-17-56N, ilguma: 32-18-00E, Aukštis: 15 m

Dabartinis oras

Ataskaita buvo paskelbta 6 valandos ir 51 minutes, ne 14:50 UTC
Vėjas 9 kt iš Pietų/Pietryčių, svyruoja nuo Rytų/Pietryčių ir Pietų
Temperatūra 25°C
Drėgmė 34%
Slėgis 1007 hPa
Matomumas 10 km arba daugiau
nėra debesų žemiau 1500 m ir nėra kamuolinių lietaus debesų

METAR: LTFG 051450Z 16009KT 120V190 CAVOK 25/08 Q1007

Laikas: 00:41 (21:41 UTC)

Prognozė

Ataskaita buvo paskelbta 2 valandos ir 1 minutes, ne 19:40 UTC
Prognozė galioja nuo 05 metu 21 UTC su 06 metu 06 UTC
Vėjas 2 kt nuo kintamojo kryptimis
Matomumas 10 km arba daugiau
Išsisklaidę debesys ne aukštis 3000 ft
Tapsmas
nuo 05 metu 21 UTC su 05 metu 24 UTC
Su prošvaistėmis ne aukštis 3000 ft
Laikinai
nuo 05 metu 22 UTC su 06 metu 02 UTC
lietus

TAF: LTFG 051940Z 0521/0606 VRB02KT 9999 SCT030 BECMG 0521/0524 BKN030 TEMPO 0522/0602 -SHRA

Orai ataskaitas ir orų prognozės (METAR, TAF).

turimą stotys yra geltonos ir raudonos taškus žemėlapyje.

Perkelti pele per norėdami pamatyti stoties vardą.

Tada spustelėkite, norėdami matyti oro stebėjimo ir prognozės.

Norėdami pakeisti žemėlapį: spustelėkite ant žalios mygtukų su juodo kryžiaus žemyn,; žalią mygtuką su brūkšneliu, jei norite nutolinti; arba žalių rodyklių gretimoms žemėlapius.


METAR-TAF: